createdAt,value
2018-08-28T00:01:17.192Z,2.43
2018-08-28T00:03:45.479Z,2.70
2018-08-28T00:06:13.764Z,2.63
2018-08-28T00:08:42.037Z,2.70
2018-08-28T00:11:10.412Z,2.60
2018-08-28T00:13:38.700Z,2.77
2018-08-28T00:16:07.025Z,2.63
2018-08-28T00:18:35.310Z,2.80
2018-08-28T00:21:03.607Z,2.63
2018-08-28T00:23:31.872Z,2.37
2018-08-28T00:26:00.150Z,2.70
2018-08-28T00:28:28.433Z,3.17
2018-08-28T00:30:56.720Z,2.60
2018-08-28T00:33:25.001Z,2.33
2018-08-28T00:35:53.269Z,3.10
2018-08-28T00:38:21.553Z,3.10
2018-08-28T00:40:49.826Z,2.43
2018-08-28T00:43:18.124Z,3.30
2018-08-28T00:45:46.392Z,2.97
2018-08-28T00:48:14.658Z,2.80
2018-08-28T00:50:42.971Z,2.80
2018-08-28T00:53:11.240Z,2.60
2018-08-28T00:55:39.532Z,2.70
2018-08-28T00:58:07.797Z,2.83
2018-08-28T01:00:36.060Z,2.60
2018-08-28T01:03:04.353Z,2.83
2018-08-28T01:05:32.625Z,2.80
2018-08-28T01:08:00.898Z,2.80
2018-08-28T01:10:29.177Z,2.87
2018-08-28T01:12:57.444Z,2.80
2018-08-28T01:15:25.715Z,2.57
2018-08-28T01:17:53.989Z,3.00
2018-08-28T01:20:22.277Z,2.90
2018-08-28T01:22:50.565Z,2.80
2018-08-28T01:25:18.830Z,2.60
2018-08-28T01:27:47.090Z,2.97
2018-08-28T01:30:19.524Z,2.77
2018-08-28T01:32:47.777Z,2.97
2018-08-28T01:35:16.033Z,2.53
2018-08-28T01:37:44.288Z,2.67
2018-08-28T01:40:12.552Z,2.70
2018-08-28T01:42:40.821Z,2.63
2018-08-28T01:45:09.093Z,2.80
2018-08-28T01:47:37.369Z,2.70
2018-08-28T01:50:05.765Z,2.57
2018-08-28T01:52:34.021Z,2.50
2018-08-28T01:55:02.293Z,2.47
2018-08-28T01:57:30.561Z,2.50
2018-08-28T01:59:58.876Z,2.73
2018-08-28T02:02:27.138Z,2.50
2018-08-28T02:04:55.465Z,2.50
2018-08-28T02:07:23.737Z,2.70
2018-08-28T02:09:52.005Z,2.90
2018-08-28T02:12:20.256Z,3.00
2018-08-28T02:14:48.516Z,2.90
2018-08-28T02:17:16.798Z,2.60
2018-08-28T02:19:45.136Z,2.73
2018-08-28T02:22:13.441Z,2.50
2018-08-28T02:24:41.696Z,2.80
2018-08-28T02:27:09.992Z,2.87
2018-08-28T02:29:38.265Z,2.80
2018-08-28T02:32:06.545Z,3.00
2018-08-28T02:34:34.830Z,2.90
2018-08-28T02:37:03.097Z,2.90
2018-08-28T02:39:31.377Z,2.60
2018-08-28T02:41:59.636Z,3.00
2018-08-28T02:44:27.907Z,2.80
2018-08-28T02:46:56.169Z,2.90
2018-08-28T02:49:24.450Z,2.83
2018-08-28T02:51:52.725Z,2.80
2018-08-28T02:54:20.996Z,2.60
2018-08-28T02:56:49.289Z,2.90
2018-08-28T02:59:17.565Z,3.00
2018-08-28T03:01:45.835Z,2.87
2018-08-28T03:04:14.097Z,2.87
2018-08-28T03:06:42.365Z,2.90
2018-08-28T03:09:10.641Z,2.83
2018-08-28T03:11:38.916Z,2.80
2018-08-28T03:14:07.163Z,3.00
2018-08-28T03:16:35.461Z,2.77
2018-08-28T03:19:03.833Z,2.70
2018-08-28T03:21:32.297Z,2.50
2018-08-28T03:24:00.561Z,3.13
2018-08-28T03:26:28.834Z,2.63
2018-08-28T03:28:57.110Z,3.00
2018-08-28T03:31:25.365Z,3.10
2018-08-28T03:33:53.625Z,3.30
2018-08-28T03:36:21.897Z,2.90
2018-08-28T03:38:51.010Z,2.77
2018-08-28T03:41:19.356Z,2.90
2018-08-28T03:43:47.628Z,2.93
2018-08-28T03:46:15.886Z,3.10
2018-08-28T03:48:44.150Z,3.10
2018-08-28T03:51:12.438Z,3.00
2018-08-28T03:53:40.705Z,3.00
2018-08-28T03:56:08.980Z,2.93
2018-08-28T03:58:37.257Z,2.83
2018-08-28T04:01:05.553Z,2.93
2018-08-28T04:03:33.868Z,3.00
2018-08-28T04:06:02.127Z,2.90
2018-08-28T04:08:30.419Z,2.90
2018-08-28T04:10:58.688Z,3.07
2018-08-28T04:13:26.945Z,3.00
2018-08-28T04:15:55.217Z,3.07
2018-08-28T04:18:23.481Z,2.90
2018-08-28T04:20:51.741Z,3.10
2018-08-28T04:23:20.014Z,2.90
2018-08-28T04:28:22.920Z,3.07
2018-08-28T04:30:51.233Z,3.10
2018-08-28T04:33:19.453Z,3.00
2018-08-28T04:35:47.730Z,2.80
2018-08-28T04:38:16.000Z,3.20
2018-08-28T04:40:44.272Z,2.83
2018-08-28T04:43:12.543Z,2.87
2018-08-28T04:45:40.868Z,2.57
2018-08-28T04:48:09.408Z,3.20
2018-08-28T04:50:37.977Z,2.70
2018-08-28T04:53:06.276Z,3.20
2018-08-28T04:55:34.541Z,2.80
2018-08-28T04:58:09.541Z,2.80
2018-08-28T05:00:37.855Z,3.00
2018-08-28T05:03:06.097Z,2.60
2018-08-28T05:05:34.357Z,3.10
2018-08-28T05:08:02.624Z,2.93
2018-08-28T05:10:30.934Z,3.40
2018-08-28T05:12:59.165Z,3.10
2018-08-28T05:15:27.432Z,3.30
2018-08-28T05:17:55.699Z,3.10
2018-08-28T05:20:23.966Z,3.03
2018-08-28T05:22:52.220Z,3.40
2018-08-28T05:25:20.527Z,3.20
2018-08-28T05:27:49.126Z,3.07
2018-08-28T05:30:17.626Z,3.30
2018-08-28T05:32:45.850Z,3.33
2018-08-28T05:35:14.126Z,3.70
2018-08-28T05:37:42.421Z,3.10
2018-08-28T05:40:10.696Z,3.47
2018-08-28T05:42:38.979Z,3.30
2018-08-28T05:45:07.312Z,3.50
2018-08-28T05:47:35.908Z,3.60
2018-08-28T05:50:04.523Z,3.40
2018-08-28T05:52:32.816Z,3.83
2018-08-28T05:55:01.093Z,3.13
2018-08-28T05:57:29.372Z,3.53
2018-08-28T05:59:57.641Z,3.43
2018-08-28T06:02:25.907Z,3.20
2018-08-28T06:04:54.181Z,3.40
2018-08-28T06:07:22.457Z,3.70
2018-08-28T06:09:50.757Z,3.40
2018-08-28T06:12:19.011Z,3.60
2018-08-28T06:14:47.290Z,3.87
2018-08-28T06:17:15.566Z,3.23
2018-08-28T06:19:43.891Z,3.43
2018-08-28T06:22:12.411Z,3.27
2018-08-28T06:24:40.657Z,3.60
2018-08-28T06:27:08.920Z,3.50
2018-08-28T06:29:37.310Z,3.97
2018-08-28T06:32:05.749Z,3.87
2018-08-28T06:34:34.029Z,4.10
2018-08-28T06:37:02.301Z,4.10
2018-08-28T06:39:30.577Z,3.67
2018-08-28T06:41:58.834Z,3.67
2018-08-28T06:44:27.296Z,3.80
2018-08-28T06:46:55.566Z,3.60
2018-08-28T06:49:23.854Z,3.70
2018-08-28T06:51:52.134Z,3.90
2018-08-28T06:54:20.424Z,4.03
2018-08-28T06:56:48.764Z,3.93
2018-08-28T06:59:16.989Z,3.50
2018-08-28T07:01:45.256Z,3.43
2018-08-28T07:04:13.522Z,3.93
2018-08-28T07:06:41.798Z,3.00
2018-08-28T07:09:10.053Z,3.67
2018-08-28T07:11:38.324Z,3.40
2018-08-28T07:14:06.630Z,3.90
2018-08-28T07:16:34.925Z,3.27
2018-08-28T07:19:03.418Z,3.60
2018-08-28T07:21:31.711Z,3.67
2018-08-28T07:24:00.045Z,3.43
2018-08-28T07:26:28.403Z,3.40
2018-08-28T07:28:56.760Z,3.60
2018-08-28T07:31:25.080Z,3.80
2018-08-28T07:33:53.285Z,3.97
2018-08-28T07:36:21.569Z,3.90
2018-08-28T07:38:49.848Z,3.83
2018-08-28T07:41:18.094Z,3.73
2018-08-28T07:43:46.373Z,3.97
2018-08-28T07:46:14.674Z,3.70
2018-08-28T07:48:42.964Z,3.77
2018-08-28T07:51:11.237Z,3.83
2018-08-28T07:53:39.546Z,3.30
2018-08-28T07:56:07.800Z,3.57
2018-08-28T07:58:36.069Z,3.90
2018-08-28T08:01:04.381Z,3.83
2018-08-28T08:03:32.662Z,3.50
2018-08-28T08:06:00.920Z,3.80
2018-08-28T08:08:29.205Z,3.80
2018-08-28T08:10:57.472Z,3.93
2018-08-28T08:13:25.737Z,4.10
2018-08-28T08:15:54.008Z,3.37
2018-08-28T08:18:22.285Z,3.63
2018-08-28T08:20:50.565Z,3.20
2018-08-28T08:23:18.830Z,3.60
2018-08-28T08:25:47.101Z,3.07
2018-08-28T08:28:15.521Z,3.30
2018-08-28T08:30:43.633Z,3.50
2018-08-28T08:33:11.921Z,3.90
2018-08-28T08:35:40.206Z,4.17
2018-08-28T08:38:08.516Z,4.13
2018-08-28T08:40:36.778Z,4.00
2018-08-28T08:43:05.055Z,3.80
2018-08-28T08:45:33.325Z,3.70
2018-08-28T08:48:01.597Z,3.73
2018-08-28T08:50:29.868Z,3.70
2018-08-28T08:52:58.133Z,3.50
2018-08-28T08:55:26.460Z,3.60
2018-08-28T08:57:54.738Z,3.70
2018-08-28T09:00:23.030Z,4.27
2018-08-28T09:02:51.312Z,3.77
2018-08-28T09:05:19.584Z,4.07
2018-08-28T09:07:47.965Z,4.10
2018-08-28T09:10:16.247Z,3.63
2018-08-28T09:12:44.493Z,3.90
2018-08-28T09:15:12.805Z,3.73
2018-08-28T09:17:41.086Z,4.80
2018-08-28T09:20:09.388Z,3.80
2018-08-28T09:22:37.640Z,4.03
2018-08-28T09:25:05.953Z,4.00
2018-08-28T09:27:34.217Z,16.63
2018-08-28T09:30:02.499Z,28.90
2018-08-28T09:32:30.757Z,4.07
2018-08-28T09:34:59.016Z,3.80
2018-08-28T09:37:27.293Z,3.70
2018-08-28T09:39:55.586Z,3.90
2018-08-28T09:42:23.868Z,4.07
2018-08-28T09:44:52.146Z,3.70
2018-08-28T09:47:20.416Z,3.93
2018-08-28T09:49:48.709Z,4.33
2018-08-28T09:52:16.977Z,4.17
2018-08-28T09:54:45.237Z,4.93
2018-08-28T09:57:13.492Z,4.67
2018-08-28T09:59:41.765Z,4.40
2018-08-28T10:02:10.045Z,4.43
2018-08-28T10:04:38.344Z,4.80
2018-08-28T10:07:06.619Z,4.43
2018-08-28T10:09:34.912Z,4.50
2018-08-28T10:12:03.194Z,5.00
2018-08-28T10:14:31.486Z,4.97
2018-08-28T10:17:00.425Z,5.77
2018-08-28T10:19:28.709Z,5.70
2018-08-28T10:21:56.969Z,5.37
2018-08-28T10:24:25.254Z,4.97
2018-08-28T10:26:53.521Z,5.40
2018-08-28T10:29:21.783Z,4.90
2018-08-28T10:31:50.378Z,4.80
2018-08-28T10:34:18.641Z,5.17
2018-08-28T10:36:46.908Z,5.17
2018-08-28T10:39:15.189Z,4.87
2018-08-28T10:41:43.485Z,3.93
2018-08-28T10:44:11.752Z,4.33
2018-08-28T10:46:40.131Z,4.20
2018-08-28T10:49:08.350Z,4.40
2018-08-28T10:51:36.646Z,4.73
2018-08-28T10:54:04.964Z,4.30
2018-08-28T10:56:33.241Z,4.33
2018-08-28T10:59:01.594Z,4.90
2018-08-28T11:01:29.880Z,4.63
2018-08-28T11:03:58.141Z,4.80
2018-08-28T11:06:26.429Z,4.73
2018-08-28T11:08:54.712Z,5.50
2018-08-28T11:11:23.032Z,4.87
2018-08-28T11:13:51.315Z,4.90
2018-08-28T11:16:19.581Z,5.43
2018-08-28T11:18:47.864Z,5.50
2018-08-28T11:21:16.129Z,6.13
2018-08-28T11:23:44.397Z,5.43
2018-08-28T11:26:12.680Z,5.67
2018-08-28T11:28:40.976Z,6.30
2018-08-28T11:31:09.314Z,5.90
2018-08-28T11:33:37.909Z,5.10
2018-08-28T11:36:06.478Z,5.27
2018-08-28T11:38:34.789Z,5.60
2018-08-28T11:41:03.020Z,5.90
2018-08-28T11:43:31.297Z,6.13
2018-08-28T11:45:59.586Z,5.97
2018-08-28T11:48:27.949Z,5.83
2018-08-28T11:50:56.201Z,6.00
2018-08-28T11:53:24.586Z,5.77
2018-08-28T11:55:52.851Z,6.47
2018-08-28T11:58:21.109Z,6.17
2018-08-28T12:00:49.365Z,6.20
2018-08-28T12:03:17.742Z,6.50
2018-08-28T12:05:46.004Z,6.20
2018-08-28T12:08:14.285Z,5.43
2018-08-28T12:10:42.599Z,5.53
2018-08-28T12:13:10.947Z,5.57
2018-08-28T12:15:39.121Z,5.40
2018-08-28T12:18:07.472Z,5.30
2018-08-28T12:20:35.929Z,5.80
2018-08-28T12:23:04.065Z,5.60
2018-08-28T12:25:32.335Z,5.40
2018-08-28T12:28:00.602Z,5.60
2018-08-28T12:30:28.878Z,6.40
2018-08-28T12:32:57.165Z,5.90
2018-08-28T12:35:25.457Z,6.03
2018-08-28T12:37:53.753Z,5.90
2018-08-28T12:40:22.036Z,5.77
2018-08-28T12:42:50.320Z,5.67
2018-08-28T12:45:18.597Z,5.67
2018-08-28T12:47:46.898Z,6.23
2018-08-28T12:50:15.173Z,6.00
2018-08-28T12:52:43.445Z,6.20
2018-08-28T12:55:11.714Z,6.10
2018-08-28T12:57:40.009Z,5.90
2018-08-28T13:00:08.393Z,5.73
2018-08-28T13:02:36.672Z,6.17
2018-08-28T13:05:05.007Z,6.03
2018-08-28T13:07:33.394Z,6.43
2018-08-28T13:10:01.557Z,5.93
2018-08-28T13:12:29.814Z,6.03
2018-08-28T13:14:58.133Z,6.27
2018-08-28T13:17:26.431Z,6.60
2018-08-28T13:19:54.716Z,6.80
2018-08-28T13:22:22.972Z,6.60
2018-08-28T13:24:51.266Z,6.40
2018-08-28T13:27:19.532Z,6.43
2018-08-28T13:29:47.812Z,7.00
2018-08-28T13:32:16.151Z,6.77
2018-08-28T13:34:44.437Z,6.80
2018-08-28T13:37:12.733Z,6.20
2018-08-28T13:39:41.015Z,6.10
2018-08-28T13:42:09.296Z,6.50
2018-08-28T13:44:37.577Z,6.30
2018-08-28T13:47:05.972Z,6.70
2018-08-28T13:49:34.181Z,6.67
2018-08-28T13:52:02.465Z,6.37
2018-08-28T13:54:30.833Z,5.60
2018-08-28T13:56:59.005Z,6.20
2018-08-28T13:59:27.313Z,6.30
2018-08-28T14:01:55.593Z,6.00
2018-08-28T14:04:23.873Z,6.13
2018-08-28T14:06:52.165Z,6.17
2018-08-28T14:09:20.432Z,6.13
2018-08-28T14:11:48.709Z,6.07
2018-08-28T14:14:16.993Z,6.50
2018-08-28T14:16:45.284Z,6.57
2018-08-28T14:19:13.696Z,6.27
2018-08-28T14:21:42.009Z,7.47
2018-08-28T14:24:10.378Z,7.13
2018-08-28T14:26:38.708Z,6.80
2018-08-28T14:29:07.007Z,6.90
2018-08-28T14:31:35.274Z,6.50
2018-08-28T14:34:03.610Z,6.80
2018-08-28T14:36:32.021Z,7.27
2018-08-28T14:39:00.317Z,6.27
2018-08-28T14:41:28.698Z,6.80
2018-08-28T14:43:56.980Z,7.17
2018-08-28T14:46:25.335Z,7.10
2018-08-28T14:48:53.678Z,6.90
2018-08-28T14:51:21.973Z,7.90
2018-08-28T14:53:50.335Z,7.30
2018-08-28T14:56:18.597Z,6.83
2018-08-28T14:58:46.892Z,7.30
2018-08-28T15:01:15.169Z,7.63
2018-08-28T15:03:43.440Z,7.27
2018-08-28T15:06:11.770Z,7.67
2018-08-28T15:08:40.110Z,7.47
2018-08-28T15:11:08.524Z,8.03
2018-08-28T15:13:37.048Z,8.03
2018-08-28T15:16:05.485Z,7.03
2018-08-28T15:18:33.777Z,8.00
2018-08-28T15:21:02.166Z,7.63
2018-08-28T15:23:30.342Z,7.17
2018-08-28T15:25:58.641Z,7.20
2018-08-28T15:28:26.914Z,7.07
2018-08-28T15:30:55.193Z,7.00
2018-08-28T15:33:23.486Z,7.07
2018-08-28T15:38:26.469Z,7.10
2018-08-28T15:40:54.729Z,7.40
2018-08-28T15:43:23.038Z,7.30
2018-08-28T15:45:51.313Z,7.60
2018-08-28T15:48:19.614Z,7.00
2018-08-28T15:50:47.877Z,7.40
2018-08-28T15:53:16.168Z,7.03
2018-08-28T15:55:44.481Z,7.90
2018-08-28T15:58:12.745Z,7.80
2018-08-28T16:00:41.056Z,7.07
2018-08-28T16:03:09.373Z,7.40
2018-08-28T16:05:37.724Z,7.60
2018-08-28T16:08:06.106Z,7.13
2018-08-28T16:10:34.377Z,7.17
2018-08-28T16:13:02.661Z,6.83
2018-08-28T16:15:30.917Z,7.43
2018-08-28T16:17:59.335Z,7.27
2018-08-28T16:20:27.621Z,7.27
2018-08-28T16:22:59.136Z,7.43
2018-08-28T16:25:27.425Z,7.60
2018-08-28T16:27:55.755Z,7.07
2018-08-28T16:30:24.067Z,7.83
2018-08-28T16:32:52.414Z,7.73
2018-08-28T16:35:20.737Z,7.80
2018-08-28T16:37:49.010Z,7.70
2018-08-28T16:40:17.298Z,7.80
2018-08-28T16:42:45.618Z,7.60
2018-08-28T16:45:13.836Z,7.80
2018-08-28T16:47:42.181Z,7.50
2018-08-28T16:50:10.513Z,7.80
2018-08-28T16:52:38.789Z,7.70
2018-08-28T16:55:07.165Z,7.93
2018-08-28T16:57:35.428Z,8.20
2018-08-28T17:00:03.793Z,8.17
2018-08-28T17:02:32.077Z,8.00
2018-08-28T17:05:01.991Z,7.60
2018-08-28T17:07:31.856Z,7.87
2018-08-28T17:10:01.769Z,9.07
2018-08-28T17:12:31.637Z,8.63
2018-08-28T17:15:02.561Z,8.83
2018-08-28T17:17:33.775Z,8.37
2018-08-28T17:20:04.011Z,8.30
2018-08-28T17:22:34.283Z,8.30
2018-08-28T17:25:04.336Z,8.93
2018-08-28T17:27:34.696Z,8.57
2018-08-28T17:30:04.591Z,9.00
2018-08-28T17:32:33.556Z,8.17
2018-08-28T17:35:02.900Z,7.90
2018-08-28T17:37:32.233Z,8.23
2018-08-28T17:40:01.702Z,8.33
2018-08-28T17:42:31.178Z,8.13
2018-08-28T17:44:59.593Z,8.73
2018-08-28T17:47:27.851Z,8.87
2018-08-28T17:49:56.148Z,8.53
2018-08-28T17:52:24.508Z,8.83
2018-08-28T17:54:52.877Z,8.77
2018-08-28T17:57:21.181Z,9.70
2018-08-28T17:59:49.537Z,8.67
2018-08-28T18:02:17.822Z,8.30
2018-08-28T18:04:46.597Z,8.13
2018-08-28T18:07:15.012Z,8.40
2018-08-28T18:09:43.304Z,8.30
2018-08-28T18:12:11.653Z,8.40
2018-08-28T18:14:39.976Z,9.47
2018-08-28T18:17:08.720Z,8.77
2018-08-28T18:19:37.532Z,8.70
2018-08-28T18:22:06.137Z,9.00
2018-08-28T18:24:34.425Z,9.17
2018-08-28T18:27:02.693Z,9.20
2018-08-28T18:29:31.004Z,9.67
2018-08-28T18:31:59.510Z,14.77
2018-08-28T18:34:28.357Z,10.20
2018-08-28T18:36:57.221Z,10.20
2018-08-28T18:39:25.680Z,8.83
2018-08-28T18:41:53.996Z,8.97
2018-08-28T18:44:22.272Z,8.67
2018-08-28T18:46:50.568Z,10.63
2018-08-28T18:49:19.102Z,10.93
2018-08-28T18:51:48.001Z,11.97
2018-08-28T18:54:16.608Z,11.40
2018-08-28T18:56:45.010Z,9.40
2018-08-28T18:59:13.354Z,9.60
2018-08-28T19:01:41.629Z,9.67
2018-08-28T19:04:09.981Z,8.80
2018-08-28T19:06:38.373Z,12.43
2018-08-28T19:09:06.759Z,10.23
2018-08-28T19:11:35.042Z,9.47
2018-08-28T19:14:03.532Z,9.23
2018-08-28T19:16:31.941Z,9.63
2018-08-28T19:19:00.321Z,10.60
2018-08-28T19:21:28.685Z,10.97
2018-08-28T19:23:57.068Z,9.93
2018-08-28T19:26:25.467Z,10.80
2018-08-28T19:28:53.803Z,9.80
2018-08-28T19:31:22.259Z,10.20
2018-08-28T19:33:50.628Z,9.93
2018-08-28T19:36:18.973Z,9.83
2018-08-28T19:38:47.251Z,9.60
2018-08-28T19:41:15.775Z,10.27
2018-08-28T19:43:44.046Z,9.97
2018-08-28T19:46:12.361Z,10.17
2018-08-28T19:48:40.632Z,10.13
2018-08-28T19:51:08.923Z,10.37
2018-08-28T19:53:37.295Z,10.20
2018-08-28T19:56:05.625Z,9.97
2018-08-28T19:58:33.909Z,9.33
2018-08-28T20:01:02.204Z,9.27
2018-08-28T20:03:30.470Z,9.30
2018-08-28T20:05:58.777Z,8.80
2018-08-28T20:08:27.041Z,10.00
2018-08-28T20:10:55.319Z,9.23
2018-08-28T20:13:23.589Z,9.23
2018-08-28T20:15:51.861Z,9.40
2018-08-28T20:18:20.160Z,9.57
2018-08-28T20:20:48.507Z,9.97
2018-08-28T20:23:16.742Z,10.77
2018-08-28T20:25:45.023Z,10.27
2018-08-28T20:28:13.321Z,10.03
2018-08-28T20:30:41.731Z,10.57
2018-08-28T20:33:10.004Z,9.93
2018-08-28T20:35:38.315Z,9.63
2018-08-28T20:38:06.596Z,10.20
2018-08-28T20:40:34.868Z,9.60
2018-08-28T20:43:03.132Z,10.00
2018-08-28T20:45:31.457Z,9.53
2018-08-28T20:47:59.789Z,10.20
2018-08-28T20:50:28.074Z,10.27
2018-08-28T20:52:56.336Z,10.13
2018-08-28T20:55:24.665Z,10.27
2018-08-28T20:57:52.965Z,10.90
2018-08-28T21:00:21.332Z,11.27
2018-08-28T21:02:49.737Z,10.00
2018-08-28T21:05:23.488Z,10.10
2018-08-28T21:07:51.802Z,9.83
2018-08-28T21:10:20.433Z,9.70
2018-08-28T21:12:48.797Z,11.47
2018-08-28T21:15:17.210Z,10.83
2018-08-28T21:17:46.856Z,9.93
2018-08-28T21:20:15.138Z,9.67
2018-08-28T21:22:43.428Z,10.50
2018-08-28T21:25:16.784Z,10.53
2018-08-28T21:27:45.106Z,10.97
2018-08-28T21:30:13.431Z,10.17
2018-08-28T21:32:41.810Z,10.53
2018-08-28T21:35:10.150Z,10.73
2018-08-28T21:37:38.478Z,10.37
2018-08-28T21:40:06.803Z,11.67
2018-08-28T21:42:35.083Z,13.33
2018-08-28T21:45:03.395Z,12.80
2018-08-28T21:47:31.665Z,11.33
2018-08-28T21:49:59.943Z,12.23
2018-08-28T21:52:28.224Z,12.40
2018-08-28T21:54:56.501Z,12.07
2018-08-28T21:57:24.790Z,11.47
2018-08-28T21:59:53.216Z,11.13
2018-08-28T22:02:21.490Z,11.40
2018-08-28T22:04:49.821Z,12.17
2018-08-28T22:07:23.410Z,11.83
2018-08-28T22:09:51.725Z,11.77
2018-08-28T22:12:20.032Z,11.77
2018-08-28T22:14:48.331Z,11.80
2018-08-28T22:17:16.641Z,11.97
2018-08-28T22:19:44.946Z,12.73
2018-08-28T22:22:13.265Z,11.73
2018-08-28T22:24:41.533Z,12.40
2018-08-28T22:27:16.388Z,11.67
2018-08-28T22:29:44.691Z,12.03
2018-08-28T22:32:12.956Z,11.40
2018-08-28T22:34:41.281Z,11.50
2018-08-28T22:37:09.647Z,11.73
2018-08-28T22:39:37.908Z,11.57
2018-08-28T22:42:06.290Z,11.17
2018-08-28T22:44:34.566Z,10.47
2018-08-28T22:47:03.068Z,10.73
2018-08-28T22:49:31.480Z,10.90
2018-08-28T22:51:59.742Z,10.97
2018-08-28T22:54:28.058Z,11.17
2018-08-28T22:56:56.346Z,10.83
2018-08-28T22:59:24.644Z,10.77
2018-08-28T23:01:52.964Z,10.77
2018-08-28T23:04:21.229Z,11.30
2018-08-28T23:06:49.533Z,11.00
2018-08-28T23:09:17.821Z,10.87
2018-08-28T23:11:46.093Z,10.60
2018-08-28T23:14:14.442Z,10.63
2018-08-28T23:16:42.723Z,10.37
2018-08-28T23:19:11.013Z,10.37
2018-08-28T23:21:39.274Z,11.30
2018-08-28T23:24:07.567Z,11.23
2018-08-28T23:26:35.843Z,11.03
2018-08-28T23:29:04.176Z,11.67
2018-08-28T23:31:32.476Z,11.20
2018-08-28T23:34:00.823Z,10.83
2018-08-28T23:36:29.181Z,10.40
2018-08-28T23:38:57.465Z,10.53
2018-08-28T23:41:25.983Z,11.30
2018-08-28T23:43:54.311Z,10.63
2018-08-28T23:46:22.845Z,9.97
2018-08-28T23:48:51.129Z,11.43
2018-08-28T23:51:19.407Z,12.43
2018-08-28T23:53:47.690Z,10.97
2018-08-28T23:56:15.981Z,10.23
2018-08-28T23:58:44.262Z,10.70
